createdAt,value
2019-02-24T00:00:25.341Z,26.20
2019-02-24T00:02:57.774Z,29.40
2019-02-24T00:05:28.430Z,25.60
2019-02-24T00:07:59.224Z,26.27
2019-02-24T00:10:29.968Z,27.43
2019-02-24T00:13:00.686Z,26.10
2019-02-24T00:15:31.494Z,28.07
2019-02-24T00:18:02.520Z,29.67
2019-02-24T00:20:33.209Z,26.67
2019-02-24T00:23:03.958Z,30.73
2019-02-24T00:25:34.647Z,29.63
2019-02-24T00:28:07.318Z,29.00
2019-02-24T00:30:37.790Z,28.50
2019-02-24T00:33:08.468Z,28.97
2019-02-24T00:35:40.881Z,28.97
2019-02-24T00:38:12.593Z,31.73
2019-02-24T00:40:43.308Z,27.60
2019-02-24T00:43:13.962Z,31.77
2019-02-24T00:45:44.994Z,30.93
2019-02-24T00:48:15.629Z,33.93
2019-02-24T00:50:47.858Z,30.20
2019-02-24T00:53:18.486Z,33.40
2019-02-24T00:55:49.178Z,26.80
2019-02-24T00:58:19.973Z,29.67
2019-02-24T01:00:52.230Z,30.30
2019-02-24T01:03:23.093Z,29.73
2019-02-24T01:05:53.898Z,31.80
2019-02-24T01:08:24.566Z,31.13
2019-02-24T01:10:55.510Z,28.63
2019-02-24T01:13:26.168Z,36.87
2019-02-24T01:15:56.853Z,31.40
2019-02-24T01:18:28.891Z,30.57
2019-02-24T01:20:59.590Z,37.00
2019-02-24T01:23:30.353Z,32.60
2019-02-24T01:26:01.016Z,32.30
2019-02-24T01:28:31.693Z,38.70
2019-02-24T01:31:03.451Z,32.97
2019-02-24T01:33:34.141Z,37.03
2019-02-24T01:36:04.813Z,38.40
2019-02-24T01:38:35.462Z,37.47
2019-02-24T01:41:06.079Z,38.20
2019-02-24T01:43:36.753Z,38.60
2019-02-24T01:46:07.585Z,38.70
2019-02-24T01:48:38.378Z,35.87
2019-02-24T02:10:03.749Z,41.97
2019-02-24T02:12:34.572Z,35.33
2019-02-24T02:15:05.468Z,37.83
2019-02-24T02:17:36.435Z,37.33
2019-02-24T02:20:07.279Z,39.83
2019-02-24T02:22:38.510Z,38.20
2019-02-24T02:25:09.747Z,40.20
2019-02-24T02:27:41.337Z,37.97
2019-02-24T02:30:12.413Z,37.53
2019-02-24T02:32:43.791Z,38.47
2019-02-24T02:35:14.503Z,31.70
2019-02-24T02:37:45.234Z,36.53
2019-02-24T02:40:16.014Z,36.93
2019-02-24T02:42:46.974Z,32.73
2019-02-24T02:45:17.761Z,32.67
2019-02-24T02:47:49.174Z,36.80
2019-02-24T02:50:20.198Z,32.13
2019-02-24T02:52:50.993Z,35.80
2019-02-24T02:55:21.659Z,34.27
2019-02-24T02:57:52.385Z,33.13
2019-02-24T03:00:31.713Z,34.70
2019-02-24T03:03:02.544Z,35.03
2019-02-24T03:05:33.262Z,35.27
2019-02-24T03:08:08.073Z,36.30
2019-02-24T03:10:38.995Z,38.93
2019-02-24T03:13:09.817Z,34.20
2019-02-24T03:15:40.674Z,36.87
2019-02-24T03:18:11.314Z,44.23
2019-02-24T03:20:42.084Z,36.80
2019-02-24T03:23:13.548Z,36.93
2019-02-24T03:25:44.675Z,32.83
2019-02-24T03:28:15.462Z,44.40
2019-02-24T03:30:46.222Z,40.77
2019-02-24T03:33:17.772Z,37.43
2019-02-24T03:35:48.944Z,34.20
2019-02-24T03:38:20.494Z,35.13
2019-02-24T03:40:51.306Z,38.53
2019-02-24T03:43:22.515Z,38.40
2019-02-24T03:45:54.230Z,33.40
2019-02-24T03:48:25.237Z,36.67
2019-02-24T03:50:56.274Z,41.90
2019-02-24T03:53:27.039Z,38.43
2019-02-24T03:55:57.794Z,37.13
2019-02-24T03:58:29.772Z,39.57
2019-02-24T04:01:01.685Z,37.10
2019-02-24T04:03:33.148Z,40.13
2019-02-24T04:06:03.847Z,39.73
2019-02-24T04:08:34.516Z,40.67
2019-02-24T04:11:05.842Z,34.90
2019-02-24T04:13:37.617Z,39.47
2019-02-24T04:16:08.762Z,42.23
2019-02-24T04:18:39.493Z,39.93
2019-02-24T04:21:10.297Z,38.30
2019-02-24T04:23:41.187Z,37.10
2019-02-24T04:26:11.913Z,35.67
2019-02-24T04:28:42.823Z,40.63
2019-02-24T04:31:13.455Z,44.93
2019-02-24T04:33:45.221Z,43.20
2019-02-24T04:36:15.913Z,40.33
2019-02-24T04:38:46.586Z,42.67
2019-02-24T04:41:17.534Z,38.57
2019-02-24T04:43:49.710Z,39.57
2019-02-24T04:46:20.432Z,38.07
2019-02-24T04:48:52.694Z,45.37
2019-02-24T04:51:23.471Z,40.40
2019-02-24T04:53:54.234Z,45.17
2019-02-24T04:56:25.134Z,44.73
2019-02-24T04:58:55.880Z,40.43
2019-02-24T05:01:26.614Z,40.63
2019-02-24T05:03:57.374Z,42.03
2019-02-24T05:06:28.193Z,42.03
2019-02-24T05:08:58.973Z,46.10
2019-02-24T05:11:29.718Z,44.73
2019-02-24T05:14:00.522Z,46.20
2019-02-24T05:16:31.308Z,43.87
2019-02-24T05:19:02.886Z,41.97
2019-02-24T05:21:33.651Z,41.33
2019-02-24T05:24:04.310Z,43.37
2019-02-24T05:26:35.100Z,38.53
2019-02-24T05:29:05.837Z,47.30
2019-02-24T05:31:36.551Z,47.63
2019-02-24T05:34:07.215Z,42.93
2019-02-24T05:36:37.979Z,44.07
2019-02-24T05:39:08.634Z,45.30
2019-02-24T05:41:39.357Z,44.23
2019-02-24T05:44:10.077Z,44.23
2019-02-24T05:46:40.751Z,44.97
2019-02-24T05:49:11.493Z,51.40
2019-02-24T05:51:42.200Z,43.40
2019-02-24T05:54:12.933Z,41.07
2019-02-24T05:56:43.655Z,43.23
2019-02-24T05:59:14.403Z,40.33
2019-02-24T06:01:46.107Z,45.67
2019-02-24T06:04:16.825Z,44.07
2019-02-24T06:06:47.581Z,45.07
2019-02-24T06:09:18.242Z,46.90
2019-02-24T06:11:48.858Z,45.00
2019-02-24T06:14:19.614Z,44.47
2019-02-24T06:16:51.318Z,42.37
2019-02-24T06:19:22.186Z,47.20
2019-02-24T06:21:53.829Z,44.90
2019-02-24T06:24:24.519Z,44.80
2019-02-24T06:26:55.273Z,46.97
2019-02-24T06:29:26.023Z,45.93
2019-02-24T06:31:56.795Z,46.50
2019-02-24T06:34:27.579Z,55.07
2019-02-24T06:36:58.472Z,46.33
2019-02-24T06:39:30.410Z,46.97
2019-02-24T06:42:01.153Z,52.53
2019-02-24T06:44:32.238Z,48.50
2019-02-24T06:47:03.935Z,46.53
2019-02-24T06:49:34.940Z,44.87
2019-02-24T06:52:05.819Z,47.33
2019-02-24T06:54:36.645Z,44.93
2019-02-24T06:57:07.372Z,46.40
2019-02-24T06:59:38.154Z,48.30
2019-02-24T07:02:09.152Z,45.87
2019-02-24T07:04:40.038Z,49.13
2019-02-24T07:07:10.819Z,46.73
2019-02-24T07:09:41.562Z,48.40
2019-02-24T07:12:12.387Z,50.77
2019-02-24T07:14:43.254Z,48.47
2019-02-24T07:17:15.277Z,44.90
2019-02-24T07:19:46.470Z,44.60
2019-02-24T07:22:17.678Z,47.93
2019-02-24T07:24:48.395Z,47.70
2019-02-24T07:27:19.051Z,44.70
2019-02-24T07:29:50.695Z,48.03
2019-02-24T07:32:22.758Z,48.60
2019-02-24T07:34:53.974Z,45.17
2019-02-24T07:37:25.453Z,49.23
2019-02-24T07:39:56.221Z,47.93
2019-02-24T07:42:27.218Z,45.90
2019-02-24T07:44:57.994Z,48.93
2019-02-24T07:47:28.771Z,49.47
2019-02-24T07:49:59.420Z,45.67
2019-02-24T07:52:30.216Z,42.77
2019-02-24T07:55:01.007Z,42.97
2019-02-24T07:57:32.005Z,50.57
2019-02-24T08:00:02.669Z,41.73
2019-02-24T08:02:33.732Z,36.23
2019-02-24T08:05:04.631Z,39.53
2019-02-24T08:07:35.373Z,38.70
2019-02-24T08:10:06.799Z,37.80
2019-02-24T08:12:37.634Z,32.57
2019-02-24T08:15:08.562Z,34.50
2019-02-24T08:17:39.442Z,34.20
2019-02-24T08:20:10.265Z,38.93
2019-02-24T08:22:41.052Z,35.03
2019-02-24T08:25:11.913Z,33.50
2019-02-24T08:27:42.637Z,32.67
2019-02-24T08:30:13.789Z,34.00
2019-02-24T08:32:44.544Z,30.93
2019-02-24T08:35:15.287Z,31.90
2019-02-24T08:37:49.740Z,29.40
2019-02-24T08:40:20.479Z,29.20
2019-02-24T08:42:51.246Z,31.60
2019-02-24T08:45:22.014Z,29.47
2019-02-24T08:47:52.835Z,26.20
2019-02-24T08:50:23.638Z,26.00
2019-02-24T08:52:54.393Z,25.73
2019-02-24T08:55:25.151Z,30.30
2019-02-24T08:57:56.081Z,27.77
2019-02-24T09:00:27.919Z,27.80
2019-02-24T09:02:58.758Z,27.83
2019-02-24T09:05:29.769Z,27.67
2019-02-24T09:08:00.969Z,28.80
2019-02-24T09:10:31.775Z,28.87
2019-02-24T09:13:02.580Z,23.80
2019-02-24T09:15:33.499Z,25.30
2019-02-24T09:18:04.316Z,29.40
2019-02-24T09:20:35.141Z,25.40
2019-02-24T09:23:05.891Z,28.00
2019-02-24T09:25:38.199Z,26.43
2019-02-24T09:28:08.874Z,24.10
2019-02-24T09:30:41.637Z,26.00
2019-02-24T09:33:12.503Z,25.83
2019-02-24T09:35:43.414Z,24.97
2019-02-24T09:38:14.175Z,27.83
2019-02-24T09:40:44.944Z,24.50
2019-02-24T09:43:16.017Z,28.13
2019-02-24T09:45:46.814Z,25.43
2019-02-24T09:48:17.669Z,24.13
2019-02-24T09:50:48.948Z,25.07
2019-02-24T09:53:19.849Z,25.90
2019-02-24T09:55:51.815Z,24.33
2019-02-24T09:58:22.510Z,24.87
2019-02-24T10:00:53.322Z,25.20
2019-02-24T10:03:24.463Z,22.73
2019-02-24T10:05:55.638Z,24.30
2019-02-24T10:08:28.792Z,23.80
2019-02-24T10:11:00.002Z,26.57
2019-02-24T10:13:30.742Z,23.17
2019-02-24T10:16:01.472Z,22.53
2019-02-24T10:18:32.223Z,24.27
2019-02-24T10:21:03.191Z,26.37
2019-02-24T10:23:33.995Z,24.17
2019-02-24T10:26:04.760Z,20.67
2019-02-24T10:28:35.652Z,24.83
2019-02-24T10:31:06.633Z,24.13
2019-02-24T10:33:37.384Z,24.67
2019-02-24T10:36:08.200Z,26.07
2019-02-24T10:38:39.075Z,24.30
2019-02-24T10:41:09.876Z,22.23
2019-02-24T10:43:40.974Z,24.77
2019-02-24T10:46:12.654Z,27.00
2019-02-24T10:48:44.361Z,23.83
2019-02-24T10:51:16.631Z,23.47
2019-02-24T10:53:47.417Z,25.07
2019-02-24T10:56:18.230Z,26.57
2019-02-24T10:58:49.046Z,26.07
2019-02-24T11:01:29.749Z,24.57
2019-02-24T11:03:55.979Z,22.83
2019-02-24T11:06:26.719Z,26.57
2019-02-24T11:08:57.458Z,23.70
2019-02-24T11:11:28.413Z,23.73
2019-02-24T11:13:59.178Z,23.83
2019-02-24T11:16:29.995Z,23.20
2019-02-24T11:19:00.704Z,26.90
2019-02-24T11:21:31.430Z,22.53
2019-02-24T11:24:02.224Z,21.80
2019-02-24T11:26:33.006Z,23.70
2019-02-24T11:29:04.983Z,23.97
2019-02-24T11:31:38.303Z,22.03
2019-02-24T11:34:11.599Z,22.40
2019-02-24T11:36:42.897Z,26.17
2019-02-24T11:39:13.756Z,23.70
2019-02-24T11:41:44.859Z,23.97
2019-02-24T11:44:15.793Z,22.43
2019-02-24T11:46:46.732Z,24.70
2019-02-24T11:49:19.954Z,22.77
2019-02-24T11:51:50.677Z,21.93
2019-02-24T11:54:21.453Z,23.07
2019-02-24T11:56:52.300Z,25.57
2019-02-24T11:59:23.062Z,22.27
2019-02-24T12:01:54.809Z,22.90
2019-02-24T12:04:25.626Z,25.27
2019-02-24T12:06:56.395Z,20.07
2019-02-24T12:09:27.553Z,21.57
2019-02-24T12:12:11.494Z,20.93
2019-02-24T12:14:42.332Z,20.97
2019-02-24T12:17:13.090Z,21.90
2019-02-24T12:19:44.578Z,23.00
2019-02-24T12:22:15.290Z,21.47
2019-02-24T12:24:47.046Z,22.83
2019-02-24T12:27:17.850Z,23.70
2019-02-24T12:29:49.477Z,19.80
2019-02-24T12:32:20.843Z,21.23
2019-02-24T12:34:52.089Z,23.30
2019-02-24T12:37:22.843Z,22.03
2019-02-24T12:39:54.180Z,21.23
2019-02-24T12:42:25.002Z,18.63
2019-02-24T12:44:56.425Z,19.33
2019-02-24T12:47:27.168Z,20.60
2019-02-24T12:50:03.312Z,18.13
2019-02-24T12:52:30.517Z,21.03
2019-02-24T12:55:01.679Z,20.83
2019-02-24T12:57:32.939Z,19.57
2019-02-24T13:00:04.011Z,24.40
2019-02-24T13:02:35.247Z,20.60
2019-02-24T13:05:06.726Z,18.30
2019-02-24T13:07:37.843Z,20.33
2019-02-24T13:10:11.857Z,20.07
2019-02-24T13:12:43.084Z,20.13
2019-02-24T13:15:13.272Z,22.40
2019-02-24T13:17:45.163Z,20.80
2019-02-24T13:20:16.000Z,19.03
2019-02-24T13:22:46.802Z,20.47
2019-02-24T13:25:17.558Z,19.33
2019-02-24T13:27:49.432Z,17.17
2019-02-24T13:30:20.341Z,18.23
2019-02-24T13:32:51.170Z,18.53
2019-02-24T13:35:21.858Z,23.67
2019-02-24T13:37:52.654Z,22.27
2019-02-24T13:40:23.988Z,21.23
2019-02-24T13:42:54.846Z,17.80
2019-02-24T13:45:26.932Z,17.17
2019-02-24T13:47:59.472Z,18.80
2019-02-24T13:50:31.957Z,19.30
2019-02-24T13:53:04.002Z,18.23
2019-02-24T13:55:36.045Z,19.47
2019-02-24T13:58:06.985Z,19.30
2019-02-24T14:00:37.771Z,21.67
2019-02-24T14:03:10.642Z,17.37
2019-02-24T14:05:41.454Z,20.77
2019-02-24T14:08:12.116Z,20.10
2019-02-24T14:10:42.950Z,17.37
2019-02-24T14:13:13.758Z,18.73
2019-02-24T14:15:44.494Z,19.87
2019-02-24T14:18:15.357Z,17.07
2019-02-24T14:20:46.093Z,18.97
2019-02-24T14:23:16.937Z,18.73
2019-02-24T14:25:47.747Z,19.43
2019-02-24T14:28:18.526Z,19.40
2019-02-24T14:30:49.317Z,17.53
2019-02-24T14:33:20.084Z,19.57
2019-02-24T14:35:50.741Z,21.77
2019-02-24T14:38:21.562Z,18.67
2019-02-24T14:40:52.249Z,20.23
2019-02-24T14:43:23.074Z,19.83
2019-02-24T14:45:53.749Z,17.53
2019-02-24T14:48:24.469Z,18.17
2019-02-24T14:50:55.249Z,21.47
2019-02-24T14:53:26.121Z,17.20
2019-02-24T14:55:57.147Z,20.03
2019-02-24T14:58:27.958Z,19.33
2019-02-24T15:01:00.646Z,16.57
2019-02-24T15:03:31.376Z,17.53
2019-02-24T15:06:02.022Z,19.03
2019-02-24T15:08:33.717Z,18.23
2019-02-24T15:11:04.353Z,18.27
2019-02-24T15:13:35.024Z,18.67
2019-02-24T15:16:05.761Z,17.90
2019-02-24T15:18:36.537Z,17.00
2019-02-24T15:21:07.290Z,18.90
2019-02-24T15:23:38.069Z,16.80
2019-02-24T15:26:08.849Z,17.37
2019-02-24T15:28:39.573Z,18.57
2019-02-24T15:31:11.838Z,15.87
2019-02-24T15:33:42.533Z,18.20
2019-02-24T15:36:13.326Z,16.47
2019-02-24T15:38:44.000Z,16.73
2019-02-24T15:41:14.690Z,16.40
2019-02-24T15:43:45.538Z,14.67
2019-02-24T15:46:16.283Z,16.70
2019-02-24T15:48:47.067Z,17.43
2019-02-24T15:51:17.718Z,15.53
2019-02-24T15:53:48.581Z,17.53
2019-02-24T15:56:19.398Z,15.67
2019-02-24T15:58:51.742Z,17.00
2019-02-24T16:01:22.641Z,14.23
2019-02-24T16:03:53.395Z,15.07
2019-02-24T16:06:25.362Z,16.00
2019-02-24T16:08:57.814Z,14.80
2019-02-24T16:11:30.847Z,17.50
2019-02-24T16:14:01.652Z,18.87
2019-02-24T16:16:33.473Z,18.33
2019-02-24T16:19:04.324Z,17.47
2019-02-24T16:21:35.074Z,19.17
2019-02-24T16:24:05.950Z,21.13
2019-02-24T16:26:36.646Z,21.23
2019-02-24T16:29:07.348Z,17.93
2019-02-24T16:31:38.155Z,22.30
2019-02-24T16:34:10.467Z,22.37
2019-02-24T16:36:41.226Z,23.63
2019-02-24T16:39:12.955Z,19.57
2019-02-24T16:41:43.756Z,18.60
2019-02-24T16:44:14.834Z,19.83
2019-02-24T16:46:46.497Z,24.63
2019-02-24T16:49:17.153Z,22.93
2019-02-24T16:51:47.902Z,22.73
2019-02-24T16:54:18.705Z,21.13
2019-02-24T16:56:50.845Z,20.00
2019-02-24T16:59:21.714Z,21.67
2019-02-24T17:01:54.210Z,21.43
2019-02-24T17:04:26.723Z,20.67
2019-02-24T17:06:57.414Z,23.73
2019-02-24T17:09:28.107Z,23.27
2019-02-24T17:11:58.860Z,24.50
2019-02-24T17:14:29.598Z,27.07
2019-02-24T17:17:01.846Z,20.87
2019-02-24T17:19:32.674Z,23.57
2019-02-24T17:22:03.459Z,26.73
2019-02-24T17:24:34.242Z,22.20
2019-02-24T17:27:04.995Z,24.60
2019-02-24T17:29:35.694Z,24.73
2019-02-24T17:32:06.427Z,24.60
2019-02-24T17:34:37.052Z,25.77
2019-02-24T17:37:09.294Z,26.07
2019-02-24T17:39:40.108Z,25.83
2019-02-24T17:42:10.949Z,25.07
2019-02-24T17:44:41.694Z,25.93
2019-02-24T17:47:12.446Z,23.87
2019-02-24T17:49:43.181Z,28.97
2019-02-24T17:52:13.993Z,26.50
2019-02-24T17:54:45.831Z,25.23
2019-02-24T17:57:16.599Z,22.23
2019-02-24T17:59:47.342Z,24.30
2019-02-24T18:02:19.346Z,25.07
2019-02-24T18:04:50.112Z,21.80
2019-02-24T18:07:20.895Z,25.97
2019-02-24T18:09:51.599Z,23.70
2019-02-24T18:12:22.363Z,22.23
2019-02-24T18:14:53.091Z,25.17
2019-02-24T18:17:24.446Z,27.40
2019-02-24T18:19:56.708Z,23.03
2019-02-24T18:22:28.545Z,26.17
2019-02-24T18:25:03.074Z,27.13
2019-02-24T18:27:32.097Z,26.60
2019-02-24T18:30:02.850Z,26.93
2019-02-24T18:32:33.785Z,24.07
2019-02-24T18:35:10.122Z,30.80
2019-02-24T18:37:40.901Z,28.57
2019-02-24T18:40:14.482Z,26.63
2019-02-24T18:42:48.715Z,28.27
2019-02-24T18:45:20.419Z,25.43
2019-02-24T18:47:57.111Z,25.77
2019-02-24T18:50:28.931Z,25.70
2019-02-24T18:53:06.389Z,29.93
2019-02-24T18:55:36.883Z,30.53
2019-02-24T18:58:08.486Z,28.97
2019-02-24T19:00:40.495Z,28.23
2019-02-24T19:03:12.838Z,31.93
2019-02-24T19:05:45.267Z,33.07
2019-02-24T19:08:17.530Z,30.73
2019-02-24T19:10:48.274Z,29.03
2019-02-24T19:13:21.229Z,32.13
2019-02-24T19:15:52.670Z,31.80
2019-02-24T19:18:24.926Z,31.17
2019-02-24T19:20:58.767Z,32.00
2019-02-24T19:23:29.521Z,30.53
2019-02-24T19:26:00.283Z,33.53
2019-02-24T19:28:31.381Z,34.30
2019-02-24T19:31:06.097Z,31.17
2019-02-24T19:33:40.442Z,30.43
2019-02-24T19:36:11.146Z,31.70
2019-02-24T19:38:47.183Z,33.03
2019-02-24T19:41:19.129Z,32.60
2019-02-24T19:43:49.996Z,33.20
2019-02-24T19:46:20.794Z,40.50
2019-02-24T19:48:52.492Z,36.10
2019-02-24T19:51:23.179Z,39.10
2019-02-24T19:53:53.911Z,41.77
2019-02-24T19:56:24.610Z,40.00
2019-02-24T19:58:55.560Z,36.10
2019-02-24T20:01:26.780Z,43.97
2019-02-24T20:03:57.600Z,46.63
2019-02-24T20:06:28.331Z,38.70
2019-02-24T20:09:00.634Z,42.67
2019-02-24T20:11:32.982Z,43.93
2019-02-24T20:14:03.860Z,46.70
2019-02-24T20:16:34.879Z,41.67
2019-02-24T20:19:05.738Z,37.60
2019-02-24T20:21:36.576Z,38.97
2019-02-24T20:24:07.299Z,38.37
2019-02-24T20:26:38.061Z,36.77
2019-02-24T20:29:09.234Z,34.20
2019-02-24T20:31:39.972Z,35.70
2019-02-24T20:34:12.330Z,38.37
2019-02-24T20:36:43.325Z,34.90
2019-02-24T20:39:14.457Z,39.07
2019-02-24T20:41:46.859Z,43.23
2019-02-24T20:44:17.654Z,37.27
2019-02-24T20:46:48.397Z,39.00
2019-02-24T20:49:23.788Z,34.30
2019-02-24T20:51:54.651Z,36.83
2019-02-24T20:54:25.590Z,39.23
2019-02-24T20:56:56.661Z,45.60
2019-02-24T20:59:27.530Z,44.90
2019-02-24T21:02:00.383Z,44.33
2019-02-24T21:04:30.883Z,42.67
2019-02-24T21:07:02.444Z,31.33
2019-02-24T21:09:33.690Z,33.90
2019-02-24T21:12:04.351Z,28.77
2019-02-24T21:14:35.098Z,30.23
2019-02-24T21:17:05.747Z,31.63
2019-02-24T21:19:38.967Z,28.13
2019-02-24T21:22:09.743Z,27.23
2019-02-24T21:24:40.562Z,31.47
2019-02-24T21:27:11.342Z,28.80
2019-02-24T21:29:42.014Z,29.23
2019-02-24T21:32:12.754Z,30.40
2019-02-24T21:34:43.467Z,34.63
2019-02-24T21:37:14.286Z,32.80
2019-02-24T21:39:45.094Z,34.80
2019-02-24T21:42:15.922Z,36.57
2019-02-24T21:44:46.757Z,34.10
2019-02-24T21:47:17.463Z,33.47
2019-02-24T21:49:48.945Z,35.40
2019-02-24T21:52:21.567Z,35.77
2019-02-24T21:54:52.351Z,37.30
2019-02-24T21:57:23.137Z,37.47
2019-02-24T21:59:53.921Z,32.20
2019-02-24T22:02:24.638Z,33.50
2019-02-24T22:04:55.413Z,36.33
2019-02-24T22:07:26.140Z,35.47
2019-02-24T22:09:59.225Z,39.00
2019-02-24T22:12:30.014Z,36.20
2019-02-24T22:15:00.725Z,43.27
2019-02-24T22:17:31.442Z,39.47
2019-02-24T22:20:02.158Z,42.17
2019-02-24T22:22:32.905Z,35.67
2019-02-24T22:25:03.647Z,37.37
2019-02-24T22:27:34.421Z,37.23
2019-02-24T22:30:05.947Z,34.87
2019-02-24T22:32:39.520Z,35.00
2019-02-24T22:35:10.571Z,37.60
2019-02-24T22:37:42.273Z,36.63
2019-02-24T22:40:13.102Z,45.50
2019-02-24T22:42:45.073Z,40.07
2019-02-24T22:45:16.934Z,39.90
2019-02-24T22:47:47.993Z,38.60
2019-02-24T22:50:18.984Z,45.87
2019-02-24T22:52:49.708Z,41.43
2019-02-24T22:55:21.502Z,46.37
2019-02-24T22:57:53.097Z,44.53
2019-02-24T23:00:57.445Z,45.10
2019-02-24T23:03:35.238Z,46.83
2019-02-24T23:06:06.260Z,44.13
2019-02-24T23:08:38.249Z,46.93
2019-02-24T23:11:09.135Z,47.73
2019-02-24T23:13:40.011Z,44.13
2019-02-24T23:16:11.055Z,47.00
2019-02-24T23:18:43.500Z,48.17
2019-02-24T23:21:14.439Z,45.07
2019-02-24T23:23:45.121Z,43.93
2019-02-24T23:26:15.845Z,43.70
2019-02-24T23:28:46.589Z,47.17
2019-02-24T23:31:17.338Z,43.17
2019-02-24T23:33:48.049Z,45.53
2019-02-24T23:36:18.895Z,47.20
2019-02-24T23:38:49.719Z,47.50
2019-02-24T23:41:20.391Z,44.03
2019-02-24T23:43:51.323Z,46.77
2019-02-24T23:46:22.089Z,49.63
2019-02-24T23:48:52.792Z,48.17
2019-02-24T23:51:23.812Z,46.30
2019-02-24T23:53:54.663Z,48.50
2019-02-24T23:56:25.301Z,48.20
2019-02-24T23:58:55.975Z,45.57
